Time;durP1;ratioP1;P1;durP2;ratioP2;P2;SDS_P1;SDS_P2;PMS_P1;PMS_P2;Temp;Humidity;BMP_temperature;BMP_pressure;BME280_temperature;BME280_humidity;BME280_pressure;Samples;Min_cycle;Max_cycle;Signal;HPM_P1;HPM_P2
2021/04/10 00:00:56;;;;;;;3.07;2.20;;;;;;;12.08;45.62;96006.31;5120170;27;20204;-60
2021/04/10 00:03:23;;;;;;;4.60;2.03;;;;;;;12.25;45.42;95991.25;5120191;27;20423;-55
2021/04/10 00:05:48;;;;;;;2.33;2.13;;;;;;;12.07;45.68;95996.81;5119981;28;20172;-61
2021/04/10 00:08:14;;;;;;;3.73;2.17;;;;;;;12.12;45.94;96006.66;5119479;28;20403;-60
2021/04/10 00:10:40;;;;;;;4.83;2.27;;;;;;;12.08;45.86;95995.00;5119893;27;20542;-59
2021/04/10 00:13:05;;;;;;;2.43;1.93;;;;;;;12.15;45.57;96003.50;5115337;27;20509;-56
2021/04/10 00:15:31;;;;;;;2.23;1.90;;;;;;;12.10;45.88;96012.13;5116421;28;20661;-60
2021/04/10 00:17:57;;;;;;;2.53;2.13;;;;;;;12.20;45.60;96007.00;5116220;27;20541;-60
2021/04/10 00:20:24;;;;;;;6.90;2.90;;;;;;;12.02;46.33;95999.41;5116373;28;20407;-56
2021/04/10 00:22:50;;;;;;;5.40;2.30;;;;;;;11.90;46.56;95998.69;5116575;28;20435;-55
2021/04/10 00:25:16;;;;;;;2.40;1.83;;;;;;;11.94;46.98;96007.69;5116568;28;20407;-56
2021/04/10 00:27:42;;;;;;;4.90;2.00;;;;;;;11.84;47.02;96006.78;5135744;27;20479;-60
2021/04/10 00:30:10;;;;;;;2.63;1.90;;;;;;;11.95;46.81;96011.13;5136802;27;20992;-56
2021/04/10 00:32:35;;;;;;;4.60;2.00;;;;;;;11.92;46.86;96004.50;5130787;27;20195;-56
2021/04/10 00:35:01;;;;;;;2.40;2.13;;;;;;;11.99;46.62;96009.63;5116519;27;20926;-59
2021/04/10 00:37:26;;;;;;;4.40;2.43;;;;;;;12.08;46.55;96005.53;5136608;27;20171;-61
2021/04/10 00:39:52;;;;;;;3.13;2.00;;;;;;;12.15;46.73;96003.50;5134839;27;20280;-62
2021/04/10 00:42:17;;;;;;;2.30;1.60;;;;;;;12.30;45.85;96001.84;5136728;27;20255;-56
2021/04/10 00:44:42;;;;;;;2.30;2.10;;;;;;;12.24;45.74;95996.78;5136675;27;20613;-61
2021/04/10 00:47:08;;;;;;;2.40;1.93;;;;;;;12.05;46.29;95991.00;5136185;27;20181;-61
2021/04/10 00:49:34;;;;;;;3.53;2.17;;;;;;;12.04;46.59;95993.88;5137197;27;20272;-61
2021/04/10 00:52:01;;;;;;;2.43;2.07;;;;;;;11.82;47.08;95993.03;5135862;27;20628;-61
2021/04/10 00:54:27;;;;;;;4.43;2.07;;;;;;;12.02;46.37;95990.69;5134629;27;20283;-61
2021/04/10 00:56:52;;;;;;;2.53;2.07;;;;;;;12.16;45.99;95987.47;5136145;27;20434;-57
2021/04/10 00:59:18;;;;;;;2.40;1.47;;;;;;;11.97;46.28;95985.38;5136292;27;20442;-56
2021/04/10 01:01:43;;;;;;;3.83;1.87;;;;;;;12.03;46.32;95987.03;5136397;27;20247;-56
2021/04/10 01:04:09;;;;;;;3.50;2.20;;;;;;;11.94;46.74;95981.38;5136188;27;20535;-60
2021/04/10 01:06:34;;;;;;;4.27;2.10;;;;;;;11.94;47.07;95978.75;5135619;27;20286;-56
2021/04/10 01:09:00;;;;;;;2.00;1.73;;;;;;;11.97;46.98;95967.75;5126746;27;20201;-61
2021/04/10 01:12:05;;;;;;;3.57;1.63;;;;;;;12.00;46.60;95966.44;5115532;27;20358;-61
2021/04/10 01:14:49;;;;;;;4.13;1.93;;;;;;;12.05;46.53;95963.88;5115662;28;20193;-61
2021/04/10 01:17:19;;;;;;;6.87;1.90;;;;;;;12.05;46.84;95966.50;5115270;28;20552;-60
2021/04/10 01:19:47;;;;;;;1.60;1.50;;;;;;;12.05;46.98;95969.94;5115436;28;20416;-56
2021/04/10 01:22:28;;;;;;;1.83;1.60;;;;;;;11.98;46.80;95971.16;5116521;27;20422;-55
2021/04/10 01:25:03;;;;;;;3.10;1.73;;;;;;;11.91;47.27;95979.22;5116060;28;20419;-60
2021/04/10 01:27:50;;;;;;;4.13;1.90;;;;;;;11.82;47.65;95967.53;5114875;28;20894;-60
2021/04/10 01:30:21;;;;;;;2.40;1.50;;;;;;;11.93;47.63;95963.19;5115015;28;20517;-61
2021/04/10 01:32:58;;;;;;;2.90;2.00;;;;;;;11.88;47.91;95971.03;5115169;28;20403;-60
2021/04/10 01:35:32;;;;;;;1.80;1.50;;;;;;;11.74;47.75;95973.19;5116091;27;20469;-60
2021/04/10 01:38:01;;;;;;;1.50;1.40;;;;;;;11.82;47.99;95975.44;5114799;27;20422;-60
2021/04/10 01:40:32;;;;;;;2.37;1.33;;;;;;;11.77;47.85;95972.72;5133999;27;20957;-60
2021/04/10 01:42:59;;;;;;;2.07;1.80;;;;;;;11.92;47.67;95965.03;5129138;27;20452;-55
2021/04/10 01:45:27;;;;;;;3.87;1.90;;;;;;;11.72;48.36;95975.28;5115145;28;20399;-61
2021/04/10 01:47:56;;;;;;;3.70;1.83;;;;;;;11.82;48.12;95969.34;5114560;27;20425;-61
2021/04/10 01:50:22;;;;;;;2.57;1.60;;;;;;;11.76;48.24;95981.66;5135466;27;20406;-56
2021/04/10 01:52:51;;;;;;;3.90;1.80;;;;;;;11.68;49.31;95963.66;5135022;27;20433;-56
2021/04/10 01:55:17;;;;;;;2.00;1.73;;;;;;;11.75;49.03;95974.00;5134498;27;20457;-60
2021/04/10 01:57:43;;;;;;;1.70;1.60;;;;;;;11.64;49.11;95972.22;5134737;27;20497;-60
2021/04/10 02:00:10;;;;;;;1.93;1.50;;;;;;;11.76;48.83;95965.84;5135247;27;20431;-60
2021/04/10 02:02:40;;;;;;;2.77;1.80;;;;;;;11.58;49.28;95966.09;5132953;27;20536;-55
2021/04/10 02:05:09;;;;;;;1.70;1.60;;;;;;;11.66;49.21;95964.91;5134939;27;20438;-56
2021/04/10 02:07:38;;;;;;;3.00;1.80;;;;;;;11.72;49.14;95964.75;5134669;27;20429;-56
2021/04/10 02:10:06;;;;;;;2.30;1.77;;;;;;;11.77;49.14;95967.47;5134970;27;20460;-60
2021/04/10 02:12:33;;;;;;;2.17;1.40;;;;;;;11.62;49.53;95969.84;5134900;27;20765;-55
2021/04/10 02:14:59;;;;;;;1.67;1.50;;;;;;;11.48;50.02;95950.19;5134919;27;20453;-56
2021/04/10 02:17:27;;;;;;;2.43;1.57;;;;;;;11.53;49.71;95955.50;5118093;27;20419;-56
2021/04/10 02:19:52;;;;;;;1.80;1.57;;;;;;;11.53;50.08;95957.31;5114104;28;20483;-56
2021/04/10 02:22:18;;;;;;;3.40;1.80;;;;;;;11.60;50.27;95960.59;5114176;28;20399;-56
2021/04/10 02:24:44;;;;;;;2.70;1.57;;;;;;;11.68;50.22;95961.03;5114256;28;20244;-60
2021/04/10 02:27:09;;;;;;;2.17;1.67;;;;;;;11.53;50.63;95963.41;5113857;28;20169;-61
2021/04/10 02:29:35;;;;;;;3.00;1.50;;;;;;;11.41;50.69;95957.44;5114995;27;20469;-55
2021/04/10 02:32:19;;;;;;;3.73;1.50;;;;;;;11.61;50.39;95963.00;5114176;27;20184;-56
2021/04/10 02:34:52;;;;;;;2.40;1.83;;;;;;;11.52;51.15;95961.81;5113832;28;20233;-60
2021/04/10 02:37:18;;;;;;;4.53;1.80;;;;;;;11.49;50.93;95969.38;5113967;28;20441;-60
2021/04/10 02:39:45;;;;;;;3.37;1.57;;;;;;;11.47;51.27;95974.09;5112534;28;20886;-55
2021/04/10 02:42:13;;;;;;;2.70;1.80;;;;;;;11.48;51.24;95965.97;5118499;27;20428;-60
2021/04/10 02:44:48;;;;;;;2.53;1.30;;;;;;;11.64;51.05;95965.13;5134577;27;20430;-60
2021/04/10 02:47:17;;;;;;;1.50;1.40;;;;;;;11.69;50.62;95961.78;5126907;27;20441;-61
2021/04/10 02:49:48;;;;;;;1.23;1.13;;;;;;;11.51;51.31;95962.84;5117806;27;20952;-60
2021/04/10 02:52:14;;;;;;;2.80;1.77;;;;;;;11.66;50.91;95960.47;5134570;27;20493;-55
2021/04/10 02:54:48;;;;;;;2.10;1.30;;;;;;;11.37;51.96;95951.88;5134393;27;20536;-56
2021/04/10 02:57:17;;;;;;;3.40;1.57;;;;;;;11.32;52.18;95953.63;5133440;27;20534;-60
2021/04/10 02:59:49;;;;;;;3.53;1.40;;;;;;;11.22;52.72;95954.25;5134129;27;20456;-60
2021/04/10 03:02:16;;;;;;;1.40;1.30;;;;;;;11.40;52.24;95955.81;5133471;27;20510;-60
2021/04/10 03:04:42;;;;;;;5.57;1.60;;;;;;;11.58;51.72;95957.44;5134293;27;20459;-55
2021/04/10 03:07:09;;;;;;;2.50;1.60;;;;;;;11.60;51.55;95957.94;5133986;27;20403;-61
2021/04/10 03:09:42;;;;;;;1.53;1.40;;;;;;;11.44;52.59;95951.69;5132442;27;20437;-60
2021/04/10 03:12:13;;;;;;;3.93;1.80;;;;;;;11.31;52.86;95962.53;5113587;28;20923;-60
2021/04/10 03:14:39;;;;;;;1.93;1.57;;;;;;;11.56;51.89;95959.50;5113914;28;20443;-55
2021/04/10 03:17:06;;;;;;;1.30;1.20;;;;;;;11.31;52.69;95959.91;5113378;28;20433;-56
2021/04/10 03:19:34;;;;;;;4.00;1.60;;;;;;;11.54;52.40;95967.59;5113580;28;20430;-60
2021/04/10 03:21:59;;;;;;;2.97;1.30;;;;;;;11.49;52.79;95969.38;5113654;28;20506;-60
2021/04/10 03:24:24;;;;;;;2.67;1.80;;;;;;;11.48;52.61;95958.06;5114421;28;20518;-60
2021/04/10 03:26:50;;;;;;;2.67;2.17;;;;;;;11.35;53.16;95976.81;5113277;28;20173;-61
2021/04/10 03:29:16;;;;;;;1.93;1.57;;;;;;;11.46;53.29;95969.84;5113280;28;20193;-60
2021/04/10 03:31:41;;;;;;;1.67;1.40;;;;;;;11.46;53.74;95981.19;5113471;28;20184;-61
2021/04/10 03:34:07;;;;;;;1.90;1.60;;;;;;;11.46;53.61;95973.28;5125009;28;20176;-55
2021/04/10 03:36:33;;;;;;;2.80;2.07;;;;;;;11.40;54.14;95976.88;5134122;27;20619;-56
2021/04/10 03:38:59;;;;;;;1.77;1.67;;;;;;;11.24;55.72;95962.69;5117933;27;20242;-56
2021/04/10 03:41:25;;;;;;;5.07;1.43;;;;;;;11.45;55.52;95970.91;5114634;28;20500;-58
2021/04/10 03:43:50;;;;;;;2.90;1.60;;;;;;;11.38;56.52;95968.41;5112966;27;20173;-60
2021/04/10 03:46:16;;;;;;;2.00;1.40;;;;;;;11.40;56.37;95972.41;5113869;28;20176;-57
2021/04/10 03:48:41;;;;;;;2.97;1.70;;;;;;;11.33;57.15;95982.31;5121801;27;20200;-55
2021/04/10 03:51:07;;;;;;;2.70;1.63;;;;;;;11.25;57.76;95985.31;5132893;27;20537;-60
2021/04/10 03:53:32;;;;;;;1.77;1.43;;;;;;;11.34;57.93;95977.84;5117181;28;20188;-56
2021/04/10 03:55:58;;;;;;;1.60;1.50;;;;;;;11.34;57.91;95977.84;5118053;27;20277;-60
2021/04/10 03:58:23;;;;;;;1.70;1.60;;;;;;;11.35;57.64;95969.72;5116610;28;20193;-56
2021/04/10 04:00:49;;;;;;;3.43;1.53;;;;;;;11.36;57.97;95983.63;5117014;28;20251;-55
2021/04/10 04:03:14;;;;;;;3.90;1.77;;;;;;;11.30;58.13;95982.00;5117032;28;20192;-56
2021/04/10 04:05:39;;;;;;;3.90;1.77;;;;;;;11.19;58.51;95988.13;5117038;27;20260;-56
2021/04/10 04:08:05;;;;;;;1.80;1.70;;;;;;;11.41;58.25;96002.94;5123055;27;20177;-60
2021/04/10 04:10:31;;;;;;;4.23;1.53;;;;;;;10.92;59.87;95995.81;5137386;27;20169;-60
2021/04/10 04:12:56;;;;;;;2.00;1.60;;;;;;;11.02;60.41;95984.66;5136987;27;20172;-56
2021/04/10 04:15:22;;;;;;;1.50;1.40;;;;;;;11.13;60.58;95981.16;5137410;27;20196;-56
2021/04/10 04:17:47;;;;;;;2.40;1.50;;;;;;;11.08;60.68;95981.09;5136797;27;20168;-55
2021/04/10 04:20:13;;;;;;;2.10;1.60;;;;;;;11.01;61.40;95988.34;5136332;27;20187;-60
2021/04/10 04:22:38;;;;;;;1.90;1.70;;;;;;;11.04;61.00;95985.22;5137052;27;20179;-56
2021/04/10 04:25:04;;;;;;;3.97;2.30;;;;;;;10.84;61.85;95980.41;5137198;27;20504;-56
2021/04/10 04:27:30;;;;;;;3.30;1.60;;;;;;;11.05;61.27;95984.22;5136774;27;20167;-61
2021/04/10 04:29:55;;;;;;;3.00;1.50;;;;;;;10.96;61.40;95996.16;5136957;27;20968;-60
2021/04/10 04:32:21;;;;;;;2.70;1.60;;;;;;;11.10;60.67;95986.91;5135262;27;20507;-60
2021/04/10 04:34:48;;;;;;;5.43;1.60;;;;;;;10.81;61.64;95991.41;5136943;27;20200;-60
2021/04/10 04:37:13;;;;;;;2.77;1.70;;;;;;;10.82;61.67;96002.69;5115903;27;20446;-60
2021/04/10 04:39:39;;;;;;;2.17;1.47;;;;;;;10.82;61.17;96005.34;5116151;28;20461;-56
2021/04/10 04:42:04;;;;;;;4.10;1.50;;;;;;;10.63;61.79;96012.63;5134607;27;20222;-60
2021/04/10 04:44:30;;;;;;;3.60;1.47;;;;;;;10.68;61.92;96014.53;5136918;27;20590;-55
2021/04/10 04:46:55;;;;;;;1.73;1.27;;;;;;;10.61;61.94;96016.50;5123190;27;20188;-60
2021/04/10 04:49:21;;;;;;;2.60;1.63;;;;;;;10.50;62.64;96018.16;5116054;28;20659;-55
2021/04/10 04:51:46;;;;;;;2.50;1.33;;;;;;;10.64;62.04;96034.41;5116112;28;20687;-56
2021/04/10 04:54:12;;;;;;;1.90;1.23;;;;;;;10.55;62.87;96027.94;5115831;28;20624;-55
2021/04/10 04:56:38;;;;;;;2.53;1.40;;;;;;;10.47;63.40;96051.97;5119146;27;20519;-56
2021/04/10 04:59:03;;;;;;;2.50;1.33;;;;;;;10.02;67.85;96036.00;5122072;27;20200;-60
2021/04/10 05:01:28;;;;;;;2.60;1.40;;;;;;;10.18;68.92;96046.63;5115894;28;20505;-60
2021/04/10 05:03:54;;;;;;;3.10;1.83;;;;;;;9.96;72.10;96053.50;5116874;27;20214;-55
2021/04/10 05:06:19;;;;;;;1.90;1.57;;;;;;;9.80;73.18;96062.03;5115719;28;20171;-56
2021/04/10 05:08:44;;;;;;;2.47;2.13;;;;;;;9.66;74.87;96057.22;5115046;28;20195;-56
2021/04/10 05:11:10;;;;;;;1.80;1.70;;;;;;;9.61;76.08;96059.72;5115783;27;20540;-60
2021/04/10 05:13:35;;;;;;;1.90;1.50;;;;;;;9.64;75.72;96060.09;5115555;27;20220;-60
2021/04/10 05:16:01;;;;;;;2.00;1.50;;;;;;;9.68;75.76;96058.59;5115625;28;20210;-60
2021/04/10 05:18:26;;;;;;;2.67;1.90;;;;;;;9.47;75.65;96061.78;5116114;27;20190;-60
2021/04/10 05:20:51;;;;;;;4.10;1.80;;;;;;;9.46;76.19;96057.56;5115586;28;20572;-59
2021/04/10 05:23:22;;;;;;;3.23;1.80;;;;;;;9.52;75.74;96067.16;5115230;28;20170;-60
2021/04/10 05:25:48;;;;;;;2.50;1.50;;;;;;;9.60;75.61;96073.88;5115719;28;20245;-55
2021/04/10 05:28:14;;;;;;;1.70;1.60;;;;;;;9.53;75.76;96068.72;5115230;28;20864;-60
2021/04/10 05:30:39;;;;;;;3.60;1.70;;;;;;;9.34;75.83;96070.66;5131273;27;20410;-55
2021/04/10 05:33:05;;;;;;;4.13;2.10;;;;;;;9.52;75.24;96077.63;5135882;27;20628;-60
2021/04/10 05:35:30;;;;;;;4.83;2.10;;;;;;;9.58;75.04;96082.00;5135998;27;20644;-55
2021/04/10 05:37:56;;;;;;;3.03;1.90;;;;;;;9.60;74.47;96084.38;5134283;27;20180;-59
2021/04/10 05:40:21;;;;;;;4.00;1.83;;;;;;;9.83;73.70;96090.44;5135738;27;20190;-56
2021/04/10 05:42:47;;;;;;;2.73;1.67;;;;;;;9.61;73.92;96086.78;5135635;27;20173;-60
2021/04/10 05:45:12;;;;;;;4.00;1.73;;;;;;;9.81;72.78;96089.06;5135091;27;20173;-55
2021/04/10 05:47:38;;;;;;;3.63;1.40;;;;;;;9.97;72.19;96091.81;5135086;27;20235;-55
2021/04/10 05:50:04;;;;;;;2.90;1.80;;;;;;;9.94;71.42;96092.28;5135427;27;20180;-56
2021/04/10 05:52:29;;;;;;;3.40;1.70;;;;;;;9.88;71.37;96111.56;5134518;27;20645;-61
2021/04/10 05:54:54;;;;;;;2.10;1.70;;;;;;;9.94;70.48;96105.41;5134618;27;20459;-60
2021/04/10 05:57:20;;;;;;;3.77;1.83;;;;;;;10.01;69.63;96116.59;5133619;27;20173;-56
2021/04/10 05:59:46;;;;;;;2.40;1.93;;;;;;;9.88;70.08;96108.94;5134145;27;20209;-60
2021/04/10 06:02:11;;;;;;;1.93;1.80;;;;;;;10.14;69.05;96105.91;5135228;27;20168;-60
2021/04/10 06:04:37;;;;;;;3.53;1.83;;;;;;;10.22;68.50;96100.28;5135238;27;20248;-59
2021/04/10 06:07:03;;;;;;;2.80;1.83;;;;;;;9.96;69.33;96105.97;5126553;27;20261;-56
2021/04/10 06:09:28;;;;;;;2.00;1.70;;;;;;;10.04;68.66;96104.81;5119690;27;20250;-60
2021/04/10 06:11:54;;;;;;;4.40;1.63;;;;;;;10.22;68.59;96109.97;5134788;27;20408;-55
2021/04/10 06:14:20;;;;;;;2.43;1.50;;;;;;;9.93;69.28;96122.16;5132913;27;20603;-60
2021/04/10 06:16:47;;;;;;;2.50;1.63;;;;;;;10.11;69.46;96111.59;5134493;27;20183;-60
2021/04/10 06:19:13;;;;;;;4.70;1.57;;;;;;;10.03;69.16;96135.53;5134553;27;20433;-57
2021/04/10 06:21:38;;;;;;;5.57;1.60;;;;;;;10.26;69.14;96119.81;5134978;27;20855;-62
2021/04/10 06:24:04;;;;;;;4.13;1.40;;;;;;;10.16;69.40;96122.19;5133862;27;20471;-61
2021/04/10 06:26:29;;;;;;;3.30;1.93;;;;;;;10.43;68.30;96124.34;5134939;27;20514;-55
2021/04/10 06:28:55;;;;;;;1.60;1.50;;;;;;;10.41;68.36;96129.03;5132628;27;20199;-56
2021/04/10 06:31:20;;;;;;;2.00;1.80;;;;;;;10.32;68.73;96113.66;5134866;27;20166;-60
2021/04/10 06:33:46;;;;;;;2.20;1.47;;;;;;;10.12;69.65;96122.91;5133748;27;20175;-61
2021/04/10 06:36:11;;;;;;;3.20;1.80;;;;;;;10.02;70.43;96130.50;5134542;27;20298;-55
2021/04/10 06:38:36;;;;;;;2.43;1.80;;;;;;;10.19;69.88;96123.56;5132904;27;20206;-61
2021/04/10 06:41:04;;;;;;;2.10;1.47;;;;;;;10.31;69.71;96137.50;5134530;27;20226;-61
2021/04/10 06:43:29;;;;;;;3.40;1.40;;;;;;;10.15;70.27;96131.09;5132882;27;20186;-60
2021/04/10 06:45:58;;;;;;;1.90;1.80;;;;;;;10.36;69.62;96130.53;5134654;27;20891;-55
2021/04/10 06:48:26;;;;;;;1.70;1.60;;;;;;;10.27;69.99;96139.00;5132752;27;20213;-57
2021/04/10 06:50:51;;;;;;;2.73;1.63;;;;;;;10.08;70.82;96146.16;5134583;27;20827;-56
2021/04/10 06:53:17;;;;;;;2.53;1.90;;;;;;;10.09;72.80;96142.50;5129026;27;20436;-61
2021/04/10 06:56:05;;;;;;;3.70;1.90;;;;;;;9.98;73.27;96145.91;5113946;27;20198;-55
2021/04/10 06:58:51;;;;;;;2.87;1.90;;;;;;;10.11;73.24;96142.28;5127265;27;21011;-56
2021/04/10 07:01:17;;;;;;;1.80;1.70;;;;;;;10.20;72.61;96146.16;5134284;27;20395;-57
2021/04/10 07:03:44;;;;;;;3.40;2.10;;;;;;;10.04;73.12;96146.81;5124825;27;20937;-56
2021/04/10 07:06:10;;;;;;;1.67;1.57;;;;;;;10.14;72.69;96145.28;5155155;27;20466;-63
2021/04/10 07:08:37;;;;;;;2.03;1.70;;;;;;;10.11;73.46;96140.47;5154606;27;20475;-55
2021/04/10 07:11:02;;;;;;;1.83;1.73;;;;;;;10.30;71.98;96144.59;5155219;27;20404;-56
2021/04/10 07:13:27;;;;;;;2.30;2.03;;;;;;;10.17;71.45;96142.19;5125356;27;20510;-56
2021/04/10 07:15:53;;;;;;;1.87;1.63;;;;;;;10.22;71.82;96144.91;5114758;28;20195;-55
2021/04/10 07:18:18;;;;;;;1.87;1.63;;;;;;;10.35;71.24;96144.69;5113116;28;20198;-63
2021/04/10 07:20:44;;;;;;;3.20;1.80;;;;;;;10.64;70.95;96152.66;5113633;28;20173;-56
2021/04/10 07:23:12;;;;;;;9.60;2.73;;;;;;;10.27;71.13;96158.16;5117681;28;20183;-55
2021/04/10 07:25:43;;;;;;;3.90;1.67;;;;;;;10.42;70.80;96155.06;5117541;28;20208;-63
2021/04/10 07:28:25;;;;;;;2.10;1.70;;;;;;;10.50;70.55;96149.47;5117326;27;21048;-56
2021/04/10 07:30:58;;;;;;;6.43;2.00;;;;;;;10.34;70.84;96150.19;5117742;27;20416;-63
2021/04/10 07:33:25;;;;;;;1.77;1.63;;;;;;;10.41;71.21;96156.13;5117949;28;20463;-56
2021/04/10 07:35:50;;;;;;;2.13;1.93;;;;;;;10.56;70.45;96159.09;5117668;28;20510;-56
2021/04/10 07:38:29;;;;;;;3.80;1.80;;;;;;;10.27;71.22;96167.88;5117074;28;20438;-63
2021/04/10 07:40:55;;;;;;;2.57;1.60;;;;;;;10.36;70.68;96162.03;5117406;28;20256;-63
2021/04/10 07:43:29;;;;;;;3.27;1.63;;;;;;;10.33;70.99;96170.38;5118548;27;20757;-56
2021/04/10 07:46:22;;;;;;;1.90;1.60;;;;;;;10.29;71.49;96168.44;5117231;28;20904;-63
2021/04/10 07:49:06;;;;;;;3.50;2.17;;;;;;;10.12;73.19;96172.78;5108976;28;20601;-57
2021/04/10 07:51:51;;;;;;;3.80;1.63;;;;;;;10.36;73.72;96177.00;5119774;27;20422;-56
2021/04/10 07:54:21;;;;;;;2.13;1.90;;;;;;;10.22;74.70;96181.69;5117307;28;20482;-63
2021/04/10 07:57:03;;;;;;;2.20;2.00;;;;;;;10.25;75.07;96188.31;5117253;28;20421;-63
2021/04/10 07:59:30;;;;;;;2.97;1.63;;;;;;;10.16;76.28;96182.56;5130219;27;20537;-56
2021/04/10 08:02:13;;;;;;;2.67;1.97;;;;;;;10.04;77.74;96192.25;5132838;27;20423;-63
2021/04/10 08:04:40;;;;;;;2.63;2.47;;;;;;;10.40;77.43;96188.63;5157037;27;20566;-55
2021/04/10 08:07:07;;;;;;;1.93;1.73;;;;;;;10.32;78.53;96187.19;5137502;27;20455;-55
2021/04/10 08:09:38;;;;;;;1.90;1.70;;;;;;;10.04;77.01;96196.69;5137319;27;20802;-63
2021/04/10 08:12:09;;;;;;;5.13;2.10;;;;;;;10.07;76.97;96189.16;5135969;27;20495;-63
2021/04/10 08:14:45;;;;;;;5.07;1.93;;;;;;;9.96;76.72;96192.59;5136586;27;20455;-67
2021/04/10 08:17:34;;;;;;;1.90;1.60;;;;;;;9.89;76.97;96191.88;5136966;27;20882;-57
2021/04/10 08:20:19;;;;;;;2.00;1.77;;;;;;;9.79;77.13;96201.31;5126795;27;20990;-65
2021/04/10 08:22:44;;;;;;;2.10;1.53;;;;;;;9.98;77.44;96200.22;5153514;27;20408;-57
2021/04/10 08:25:11;;;;;;;1.60;1.50;;;;;;;10.12;76.25;96191.94;5157877;27;20823;-57
2021/04/10 08:27:39;;;;;;;1.90;1.70;;;;;;;10.05;77.06;96193.06;5157484;27;20530;-67
2021/04/10 08:30:06;;;;;;;3.40;1.40;;;;;;;10.08;76.39;96195.22;5127119;27;20783;-57
2021/04/10 08:32:31;;;;;;;3.10;1.60;;;;;;;10.02;76.55;96194.28;5118729;27;20418;-59
2021/04/10 08:34:57;;;;;;;1.50;1.40;;;;;;;9.92;77.23;96199.31;5115784;28;20810;-57
2021/04/10 08:37:23;;;;;;;1.90;1.80;;;;;;;10.08;76.69;96208.34;5116940;27;20629;-57
2021/04/10 08:39:49;;;;;;;4.90;1.90;;;;;;;10.01;77.72;96213.69;5116284;27;20195;-57
2021/04/10 08:42:16;;;;;;;1.40;1.30;;;;;;;10.21;77.72;96208.97;5116151;28;20416;-58
2021/04/10 08:44:45;;;;;;;1.90;1.60;;;;;;;10.15;76.87;96203.81;5116414;27;20207;-57
2021/04/10 08:47:11;;;;;;;1.80;1.70;;;;;;;10.34;77.54;96208.72;5115723;28;20430;-67
2021/04/10 08:49:41;;;;;;;3.23;1.67;;;;;;;10.19;77.11;96204.97;5125940;27;20448;-57
2021/04/10 08:52:08;;;;;;;1.40;1.20;;;;;;;10.38;76.05;96204.63;5135402;27;20397;-67
2021/04/10 08:54:39;;;;;;;1.50;1.40;;;;;;;10.20;75.71;96211.78;5136573;27;20933;-57
2021/04/10 08:57:10;;;;;;;1.47;1.40;;;;;;;10.37;74.85;96207.50;5135924;27;20400;-62
2021/04/10 08:59:44;;;;;;;4.57;1.50;;;;;;;10.33;75.02;96211.59;5126807;27;20803;-56
2021/04/10 09:02:13;;;;;;;3.07;1.40;;;;;;;10.71;73.59;96196.16;5157099;27;20408;-67
2021/04/10 09:04:56;;;;;;;2.40;1.50;;;;;;;10.50;73.59;96199.38;5157145;27;20407;-57
2021/04/10 09:07:43;;;;;;;1.30;1.20;;;;;;;10.62;72.72;96210.69;5123764;27;20534;-67
2021/04/10 09:10:09;;;;;;;10.23;7.43;;;;;;;10.69;70.54;96194.81;5115718;28;20406;-58
2021/04/10 09:12:34;;;;;;;2.13;1.93;;;;;;;10.55;70.68;96194.25;5133656;27;20480;-66
2021/04/10 09:15:07;;;;;;;3.83;3.50;;;;;;;10.54;71.66;96189.22;5116637;27;20661;-66
2021/04/10 09:18:00;;;;;;;18.83;14.80;;;;;;;10.63;71.12;96193.09;5111607;28;20169;-58
2021/04/10 09:20:44;;;;;;;3.50;2.50;;;;;;;10.84;69.74;96197.75;5103520;28;20517;-58
2021/04/10 09:23:29;;;;;;;2.20;2.10;;;;;;;11.25;69.02;96187.81;5111920;28;20902;-59
2021/04/10 09:26:16;;;;;;;3.00;2.80;;;;;;;11.10;68.15;96190.19;5112037;27;20415;-64
2021/04/10 09:29:04;;;;;;;3.67;2.23;;;;;;;11.18;67.35;96194.25;5111889;27;20508;-57
2021/04/10 09:31:40;;;;;;;2.17;1.43;;;;;;;11.37;66.83;96195.69;5101937;28;20926;-65
2021/04/10 09:34:45;;;;;;;2.93;1.30;;;;;;;11.43;66.22;96195.53;5111837;28;20399;-58
2021/04/10 09:37:11;;;;;;;4.20;1.50;;;;;;;11.52;65.41;96192.53;5111440;27;20438;-65
2021/04/10 09:39:57;;;;;;;1.80;1.70;;;;;;;11.73;64.83;96187.44;5131757;27;20521;-64
2021/04/10 09:42:34;;;;;;;1.13;1.03;;;;;;;11.63;64.78;96196.97;5119433;27;20422;-58
2021/04/10 09:45:18;;;;;;;2.93;1.10;;;;;;;11.83;63.50;96198.13;5131990;27;20405;-58
2021/04/10 09:47:54;;;;;;;2.13;1.47;;;;;;;11.79;63.54;96190.97;5131552;27;20428;-66
2021/04/10 09:50:29;;;;;;;1.50;1.40;;;;;;;11.73;64.05;96192.69;5131849;27;20430;-59
2021/04/10 09:52:59;;;;;;;1.30;1.20;;;;;;;12.25;62.38;96193.28;5130051;27;20870;-66
2021/04/10 09:55:26;;;;;;;1.20;1.10;;;;;;;11.86;62.81;96191.59;5128970;27;20462;-58
2021/04/10 09:57:59;;;;;;;1.40;1.23;;;;;;;11.64;63.17;96194.09;5110829;27;20930;-60
2021/04/10 10:00:24;;;;;;;2.53;1.50;;;;;;;11.85;63.04;96195.28;5111310;28;20763;-64
2021/04/10 10:02:57;;;;;;;1.00;1.00;;;;;;;11.99;62.28;96192.06;5111288;28;20403;-63
2021/04/10 10:05:24;;;;;;;1.20;1.10;;;;;;;12.10;61.69;96193.84;5110634;28;20204;-57
2021/04/10 10:07:50;;;;;;;2.10;1.63;;;;;;;12.08;61.25;96185.38;5110868;28;20817;-57
2021/04/10 10:10:16;;;;;;;1.00;0.90;;;;;;;12.17;61.75;96183.16;5116234;27;20442;-60
2021/04/10 10:12:42;;;;;;;1.53;1.10;;;;;;;12.41;60.96;96182.75;5131469;27;20425;-57
2021/04/10 10:15:21;;;;;;;1.10;1.00;;;;;;;12.56;60.14;96179.53;5130303;27;20548;-58
2021/04/10 10:17:46;;;;;;;0.93;0.90;;;;;;;12.46;60.03;96181.22;5132842;27;20225;-70
2021/04/10 10:20:13;;;;;;;2.00;1.13;;;;;;;12.36;59.71;96181.88;5134516;27;20438;-58
2021/04/10 10:22:39;;;;;;;1.00;0.90;;;;;;;12.47;60.09;96172.28;5135097;27;20164;-58
2021/04/10 10:25:06;;;;;;;2.13;1.10;;;;;;;12.55;59.74;96172.69;5132950;27;20418;-65
2021/04/10 10:27:41;;;;;;;1.33;1.23;;;;;;;12.56;59.13;96168.19;5134469;27;20414;-58
2021/04/10 10:30:18;;;;;;;0.90;0.90;;;;;;;12.47;59.15;96167.81;5134626;27;20486;-58
2021/04/10 10:32:48;;;;;;;1.40;1.30;;;;;;;12.81;58.28;96165.91;5133792;27;20421;-66
2021/04/10 10:35:15;;;;;;;1.40;1.13;;;;;;;13.02;57.95;96173.88;5134713;27;20457;-66
2021/04/10 10:37:45;;;;;;;1.20;1.10;;;;;;;13.17;57.63;96166.13;5134309;27;20407;-58
2021/04/10 10:40:20;;;;;;;1.20;1.10;;;;;;;13.38;56.40;96160.03;5114194;27;20450;-66
2021/04/10 10:42:57;;;;;;;1.40;1.30;;;;;;;13.37;56.39;96171.63;5129931;27;20413;-66
2021/04/10 10:45:41;;;;;;;1.10;1.00;;;;;;;13.51;55.62;96164.13;5121001;27;20441;-66
2021/04/10 10:48:27;;;;;;;1.23;1.13;;;;;;;13.58;56.29;96159.47;5113336;28;20423;-66
2021/04/10 10:51:00;;;;;;;2.73;1.27;;;;;;;14.13;56.53;96161.81;5114343;28;20427;-58
2021/04/10 10:53:36;;;;;;;1.60;1.50;;;;;;;14.16;53.40;96158.66;5115157;28;20502;-66
2021/04/10 10:56:21;;;;;;;6.50;1.33;;;;;;;14.34;54.03;96156.44;5112950;28;20450;-61
2021/04/10 10:58:52;;;;;;;5.73;1.70;;;;;;;14.15;53.30;96157.84;5119113;27;20499;-58
2021/04/10 11:01:28;;;;;;;1.63;1.53;;;;;;;13.85;54.93;96160.25;5134512;27;20405;-57
2021/04/10 11:04:09;;;;;;;1.43;1.20;;;;;;;13.96;54.62;96158.47;5134365;27;20420;-57
2021/04/10 11:06:41;;;;;;;1.43;1.33;;;;;;;14.22;53.58;96147.84;5129027;27;20423;-67
2021/04/10 11:09:14;;;;;;;1.93;1.60;;;;;;;14.41;53.13;96157.03;5113289;28;20914;-57
2021/04/10 11:11:46;;;;;;;1.70;1.00;;;;;;;14.39;52.47;96143.25;5114033;28;20510;-56
2021/04/10 11:14:18;;;;;;;1.70;1.20;;;;;;;14.23;51.86;96140.72;5115491;28;20926;-67
2021/04/10 11:16:45;;;;;;;1.40;1.30;;;;;;;14.26;53.22;96146.34;5134383;27;20422;-56
2021/04/10 11:19:11;;;;;;;2.93;2.70;;;;;;;14.36;52.53;96138.50;5133754;27;20442;-56
2021/04/10 11:21:36;;;;;;;2.97;1.27;;;;;;;14.23;53.30;96135.44;5132341;27;20485;-67
2021/04/10 11:24:06;;;;;;;2.97;1.20;;;;;;;14.29;53.11;96132.59;5134357;27;20255;-56
2021/04/10 11:26:50;;;;;;;2.27;1.23;;;;;;;14.71;51.95;96131.81;5134131;27;20165;-56
2021/04/10 11:29:31;;;;;;;1.40;1.30;;;;;;;14.65;51.97;96127.53;5125444;27;20442;-65
2021/04/10 11:32:16;;;;;;;0.80;0.80;;;;;;;14.86;51.37;96130.03;5113689;28;20403;-64
2021/04/10 11:34:53;;;;;;;0.90;0.90;;;;;;;14.19;52.61;96119.28;5127536;28;20453;-64
2021/04/10 11:37:28;;;;;;;1.77;1.10;;;;;;;14.42;52.19;96124.22;5123691;27;20978;-58
2021/04/10 11:39:53;;;;;;;2.93;1.03;;;;;;;14.47;51.76;96122.69;5132721;27;20438;-65
2021/04/10 11:42:22;;;;;;;0.80;0.80;;;;;;;14.72;50.77;96114.88;5134060;27;20497;-64
2021/04/10 11:44:48;;;;;;;1.33;1.23;;;;;;;14.91;50.92;96114.16;5133969;27;20201;-64